Dirección General De Aeronáutica Civil

Dirección Meteorológica de Chile - Servicios Climáticos

Informe General de Control de Calidad de la Estación

Listado de niveles de control de calidad para algunos parámetros
Estación Traiguén (380065)
Fecha de Revisión de los datos :

Elementos

Registros Niveles de Control Total
Nivel 0 Nivel 1 Nivel 2 Nivel 3 Errores Porcentaje
01 Temperatura del Aire Seco 115.512 0 . 519 0.45 % 0 . 0 . 519 0.45 %
02 Temperatura de Rocío 115.527 0 . 0 . 0 . 0 . 0 0.00 %
03 Humedad Relativa del Aire 115.540 0 . 0 . 0 . 0 . 0 0.00 %
04 Temperatura Máxima PM 675 0 . 0 . 0 . 0 . 0 0.00 %
05 Temperatura Mínima AM 642 0 . 0 . 0 . 0 . 0 0.00 %
06 Agua Caida, Acumulada 6 Horas 20.515 0 . 0 . 0 . 0 . 0 0.00 %
07 Presión Atm. a Nivel de Estación (QFE) 114.960 0 . 0 . 0 . 0 . 0 0.00 %
08 Presión Atm. a Nivel Medio del Mar (QFF) 15.933 0 . 0 . 0 . 0 . 0 0.00 %
09 Presión Atm. Estándar OACI (QNH) 15.933 0 . 0 . 0 . 0 . 0 0.00 %

Totales

515.237 . 0.0000 % . 0.1007 % . 0.0000 % . 0.0000 % 519 0.1007 %

Detalle de Errores Encontrados

Nivel Fecha del Dato Descripción Información Error Fecha Ingreso
1 2014-07-26 08:00:00 Ts debe ser mayor o igual a Td Ts=7.5 - Td=7.6 2023-11-20 05:47:00
1 2014-08-08 16:00:00 Ts debe ser mayor o igual a Td Ts=8.3 - Td=8.4 2023-11-20 05:47:00
1 2014-08-17 16:00:00 Ts debe ser mayor o igual a Td Ts=10.3 - Td=10.4 2023-11-20 05:47:00
1 2014-08-18 04:00:00 Ts debe ser mayor o igual a Td Ts=9.0 - Td=9.1 2023-11-20 05:47:00
1 2014-08-18 13:00:00 Ts debe ser mayor o igual a Td Ts=7.3 - Td=7.4 2023-11-20 05:47:00
1 2014-08-19 03:00:00 Ts debe ser mayor o igual a Td Ts=6.9 - Td=7.0 2023-11-20 05:47:00
1 2014-08-31 08:00:00 Ts debe ser mayor o igual a Td Ts=7.4 - Td=7.5 2023-11-20 05:48:00
1 2014-09-04 14:00:00 Ts debe ser mayor o igual a Td Ts=8.9 - Td=9.0 2023-11-20 05:48:00
1 2014-09-13 15:00:00 Ts debe ser mayor o igual a Td Ts=7.8 - Td=7.9 2023-11-20 05:48:00
1 2014-10-21 12:00:00 Ts debe ser mayor o igual a Td Ts=12.4 - Td=12.5 2023-11-20 05:48:00
1 2015-04-26 11:00:00 Ts debe ser mayor o igual a Td Ts=11.6 - Td=11.7 2023-11-20 05:51:00
1 2015-04-26 12:00:00 Ts debe ser mayor o igual a Td Ts=11.6 - Td=11.7 2023-11-20 05:51:00
1 2015-04-27 07:00:00 Ts debe ser mayor o igual a Td Ts=10.8 - Td=10.9 2023-11-20 05:51:00
1 2015-04-29 13:00:00 Ts debe ser mayor o igual a Td Ts=12.5 - Td=12.6 2023-11-20 05:51:00
1 2015-05-01 18:00:00 Ts debe ser mayor o igual a Td Ts=10.8 - Td=10.9 2023-11-20 05:51:00
1 2015-05-01 22:00:00 Ts debe ser mayor o igual a Td Ts=9.3 - Td=9.4 2023-11-20 05:51:00
1 2015-05-02 02:00:00 Ts debe ser mayor o igual a Td Ts=7.5 - Td=7.6 2023-11-20 05:51:00
1 2015-05-05 13:00:00 Ts debe ser mayor o igual a Td Ts=7.5 - Td=7.6 2023-11-20 05:51:00
1 2015-05-06 13:00:00 Ts debe ser mayor o igual a Td Ts=4.8 - Td=4.9 2023-11-20 05:51:00
1 2015-05-10 07:00:00 Ts debe ser mayor o igual a Td Ts=8.5 - Td=8.6 2023-11-20 05:51:00
1 2015-05-10 09:00:00 Ts debe ser mayor o igual a Td Ts=8.3 - Td=8.4 2023-11-20 05:51:00
1 2015-05-10 15:00:00 Ts debe ser mayor o igual a Td Ts=10.8 - Td=10.9 2023-11-20 05:51:00
1 2015-05-11 13:00:00 Ts debe ser mayor o igual a Td Ts=12.3 - Td=12.4 2023-11-20 05:51:00
1 2015-05-13 09:00:00 Ts debe ser mayor o igual a Td Ts=9.1 - Td=9.2 2023-11-20 05:51:00
1 2015-05-13 11:00:00 Ts debe ser mayor o igual a Td Ts=8.8 - Td=8.9 2023-11-20 05:51:00
1 2015-05-14 10:00:00 Ts debe ser mayor o igual a Td Ts=8.2 - Td=8.3 2023-11-20 05:51:00
1 2015-05-14 11:00:00 Ts debe ser mayor o igual a Td Ts=8.2 - Td=8.3 2023-11-20 05:51:00
1 2015-05-18 04:00:00 Ts debe ser mayor o igual a Td Ts=13.6 - Td=13.7 2023-11-20 05:51:00
1 2015-05-18 13:00:00 Ts debe ser mayor o igual a Td Ts=12.6 - Td=12.7 2023-11-20 05:51:00
1 2015-05-21 10:00:00 Ts debe ser mayor o igual a Td Ts=9.0 - Td=9.1 2023-11-20 05:51:00
1 2015-05-21 14:00:00 Ts debe ser mayor o igual a Td Ts=11.6 - Td=11.7 2023-11-20 05:51:00
1 2015-06-05 06:00:00 Ts debe ser mayor o igual a Td Ts=13.8 - Td=13.9 2023-11-20 05:51:00
1 2015-06-05 08:00:00 Ts debe ser mayor o igual a Td Ts=13.0 - Td=13.1 2023-11-20 05:51:00
1 2015-06-14 02:00:00 Ts debe ser mayor o igual a Td Ts=7.0 - Td=7.1 2023-11-20 05:52:00
1 2015-06-16 13:00:00 Ts debe ser mayor o igual a Td Ts=8.3 - Td=8.4 2023-11-20 05:52:00
1 2015-06-20 04:00:00 Ts debe ser mayor o igual a Td Ts=7.4 - Td=7.5 2023-11-20 05:52:00
1 2015-06-20 14:00:00 Ts debe ser mayor o igual a Td Ts=7.7 - Td=7.8 2023-11-20 05:52:00
1 2015-06-21 05:00:00 Ts debe ser mayor o igual a Td Ts=5.7 - Td=5.8 2023-11-20 05:52:00
1 2015-06-21 12:00:00 Ts debe ser mayor o igual a Td Ts=5.7 - Td=5.8 2023-11-20 05:52:00
1 2015-06-27 05:00:00 Ts debe ser mayor o igual a Td Ts=8.8 - Td=8.9 2023-11-20 05:52:00
1 2015-06-27 10:00:00 Ts debe ser mayor o igual a Td Ts=8.6 - Td=8.7 2023-11-20 05:52:00
1 2015-07-05 08:00:00 Ts debe ser mayor o igual a Td Ts=5.7 - Td=5.8 2023-11-20 05:52:00
1 2015-07-08 21:00:00 Ts debe ser mayor o igual a Td Ts=8.8 - Td=8.9 2023-11-20 05:52:00
1 2015-07-08 23:00:00 Ts debe ser mayor o igual a Td Ts=8.7 - Td=8.8 2023-11-20 05:52:00
1 2015-07-09 05:00:00 Ts debe ser mayor o igual a Td Ts=8.6 - Td=8.7 2023-11-20 05:52:00
1 2015-07-09 10:00:00 Ts debe ser mayor o igual a Td Ts=7.7 - Td=7.8 2023-11-20 05:52:00
1 2015-07-09 11:00:00 Ts debe ser mayor o igual a Td Ts=7.0 - Td=7.1 2023-11-20 05:52:00
1 2015-07-10 16:00:00 Ts debe ser mayor o igual a Td Ts=7.8 - Td=7.9 2023-11-20 05:52:00
1 2015-07-11 09:00:00 Ts debe ser mayor o igual a Td Ts=7.0 - Td=7.1 2023-11-20 05:52:00
1 2015-07-11 12:00:00 Ts debe ser mayor o igual a Td Ts=7.0 - Td=7.1 2023-11-20 05:52:00
1 2015-07-22 13:00:00 Ts debe ser mayor o igual a Td Ts=7.3 - Td=7.4 2023-11-20 05:52:00
1 2015-07-26 21:00:00 Ts debe ser mayor o igual a Td Ts=10.6 - Td=10.7 2023-11-20 05:52:00
1 2015-07-28 12:00:00 Ts debe ser mayor o igual a Td Ts=8.1 - Td=8.2 2023-11-20 05:52:00
1 2015-08-01 08:00:00 Ts debe ser mayor o igual a Td Ts=7.8 - Td=7.9 2023-11-20 05:52:00
1 2015-08-01 11:00:00 Ts debe ser mayor o igual a Td Ts=7.8 - Td=7.9 2023-11-20 05:52:00
1 2015-08-01 12:00:00 Ts debe ser mayor o igual a Td Ts=7.8 - Td=7.9 2023-11-20 05:52:00
1 2015-08-03 05:00:00 Ts debe ser mayor o igual a Td Ts=5.7 - Td=5.8 2023-11-20 05:52:00
1 2015-08-03 14:00:00 Ts debe ser mayor o igual a Td Ts=7.7 - Td=7.8 2023-11-20 05:52:00
1 2015-08-04 05:00:00 Ts debe ser mayor o igual a Td Ts=7.4 - Td=7.5 2023-11-20 05:52:00
1 2015-08-30 09:00:00 Ts debe ser mayor o igual a Td Ts=8.7 - Td=8.8 2023-11-20 05:53:00
1 2015-08-30 10:00:00 Ts debe ser mayor o igual a Td Ts=8.7 - Td=8.8 2023-11-20 05:53:00
1 2015-08-30 13:00:00 Ts debe ser mayor o igual a Td Ts=10.6 - Td=10.7 2023-11-20 05:53:00
1 2015-09-01 11:00:00 Ts debe ser mayor o igual a Td Ts=4.8 - Td=4.9 2023-11-20 05:53:00
1 2015-09-07 14:00:00 Ts debe ser mayor o igual a Td Ts=8.6 - Td=8.7 2023-11-20 05:53:00
1 2015-09-07 16:00:00 Ts debe ser mayor o igual a Td Ts=8.8 - Td=8.9 2023-11-20 05:53:00
1 2015-09-30 06:00:00 Ts debe ser mayor o igual a Td Ts=11.6 - Td=11.7 2023-11-20 05:53:00
1 2015-09-30 12:00:00 Ts debe ser mayor o igual a Td Ts=11.8 - Td=11.9 2023-11-20 05:53:00
1 2015-10-03 13:00:00 Ts debe ser mayor o igual a Td Ts=8.5 - Td=8.6 2023-11-20 05:53:00
1 2015-11-09 04:00:00 Ts debe ser mayor o igual a Td Ts=8.2 - Td=8.3 2023-11-20 05:54:00
1 2015-12-14 03:00:00 Ts debe ser mayor o igual a Td Ts=11.8 - Td=11.9 2023-11-20 05:54:00
1 2015-12-22 11:00:00 Ts debe ser mayor o igual a Td Ts=10.3 - Td=10.4 2023-11-20 05:54:00
1 2016-01-28 08:00:00 Ts debe ser mayor o igual a Td Ts=13.6 - Td=13.7 2023-11-20 05:55:00
1 2016-01-28 12:00:00 Ts debe ser mayor o igual a Td Ts=14.2 - Td=14.3 2023-11-20 05:55:00
1 2016-03-31 06:00:00 Ts debe ser mayor o igual a Td Ts=10.3 - Td=10.4 2023-11-20 05:56:00
1 2016-03-31 09:00:00 Ts debe ser mayor o igual a Td Ts=9.0 - Td=9.1 2023-11-20 05:56:00
1 2016-03-31 15:00:00 Ts debe ser mayor o igual a Td Ts=12.9 - Td=13.0 2023-11-20 05:56:00
1 2016-04-21 13:00:00 Ts debe ser mayor o igual a Td Ts=8.3 - Td=8.4 2023-11-20 05:56:00
1 2016-04-23 08:00:00 Ts debe ser mayor o igual a Td Ts=7.6 - Td=7.7 2023-11-20 05:56:00
1 2016-04-23 09:00:00 Ts debe ser mayor o igual a Td Ts=7.8 - Td=7.9 2023-11-20 05:56:00
1 2016-04-23 15:00:00 Ts debe ser mayor o igual a Td Ts=7.8 - Td=7.9 2023-11-20 05:56:00
1 2016-05-03 09:00:00 Ts debe ser mayor o igual a Td Ts=9.3 - Td=9.4 2023-11-20 05:56:00
1 2016-05-03 13:00:00 Ts debe ser mayor o igual a Td Ts=10.7 - Td=10.8 2023-11-20 05:56:00
1 2016-05-04 06:00:00 Ts debe ser mayor o igual a Td Ts=9.4 - Td=9.5 2023-11-20 05:56:00
1 2016-05-04 12:00:00 Ts debe ser mayor o igual a Td Ts=8.5 - Td=8.6 2023-11-20 05:56:00
1 2016-05-04 13:00:00 Ts debe ser mayor o igual a Td Ts=9.1 - Td=9.2 2023-11-20 05:56:00
1 2016-05-04 17:00:00 Ts debe ser mayor o igual a Td Ts=12.2 - Td=12.3 2023-11-20 05:56:00
1 2016-05-05 10:00:00 Ts debe ser mayor o igual a Td Ts=9.1 - Td=9.2 2023-11-20 05:56:00
1 2016-05-06 07:00:00 Ts debe ser mayor o igual a Td Ts=10.6 - Td=10.7 2023-11-20 05:56:00
1 2016-05-06 11:00:00 Ts debe ser mayor o igual a Td Ts=8.3 - Td=8.4 2023-11-20 05:56:00
1 2016-05-07 11:00:00 Ts debe ser mayor o igual a Td Ts=8.4 - Td=8.5 2023-11-20 05:56:00
1 2016-05-07 14:00:00 Ts debe ser mayor o igual a Td Ts=9.4 - Td=9.5 2023-11-20 05:56:00
1 2016-05-07 17:00:00 Ts debe ser mayor o igual a Td Ts=11.8 - Td=11.9 2023-11-20 05:56:00
1 2016-05-08 10:00:00 Ts debe ser mayor o igual a Td Ts=9.3 - Td=9.4 2023-11-20 05:56:00
1 2016-05-13 13:00:00 Ts debe ser mayor o igual a Td Ts=7.5 - Td=7.6 2023-11-20 05:56:00
1 2016-05-13 14:00:00 Ts debe ser mayor o igual a Td Ts=8.7 - Td=8.8 2023-11-20 05:56:00
1 2016-05-13 15:00:00 Ts debe ser mayor o igual a Td Ts=10.4 - Td=10.5 2023-11-20 05:56:00
1 2016-05-14 12:00:00 Ts debe ser mayor o igual a Td Ts=10.3 - Td=10.4 2023-11-20 05:56:00
1 2016-05-14 17:00:00 Ts debe ser mayor o igual a Td Ts=12.9 - Td=13.0 2023-11-20 05:56:00
1 2016-05-15 07:00:00 Ts debe ser mayor o igual a Td Ts=11.7 - Td=11.8 2023-11-20 05:56:00
1 2016-05-16 13:00:00 Ts debe ser mayor o igual a Td Ts=7.0 - Td=7.1 2023-11-20 05:56:00
1 2016-05-16 15:00:00 Ts debe ser mayor o igual a Td Ts=12.3 - Td=12.4 2023-11-20 05:56:00
1 2016-05-18 15:00:00 Ts debe ser mayor o igual a Td Ts=9.2 - Td=9.3 2023-11-20 05:56:00
1 2016-05-19 08:00:00 Ts debe ser mayor o igual a Td Ts=10.3 - Td=10.4 2023-11-20 05:56:00
1 2016-05-20 07:00:00 Ts debe ser mayor o igual a Td Ts=8.8 - Td=8.9 2023-11-20 05:56:00
1 2016-05-23 10:00:00 Ts debe ser mayor o igual a Td Ts=4.8 - Td=4.9 2023-11-20 05:56:00
1 2016-05-27 14:00:00 Ts debe ser mayor o igual a Td Ts=7.3 - Td=7.4 2023-11-20 05:56:00
1 2016-05-30 04:00:00 Ts debe ser mayor o igual a Td Ts=10.4 - Td=10.5 2023-11-20 05:56:00
1 2016-05-30 10:00:00 Ts debe ser mayor o igual a Td Ts=7.6 - Td=7.7 2023-11-20 05:56:00
1 2016-05-30 11:00:00 Ts debe ser mayor o igual a Td Ts=7.1 - Td=7.2 2023-11-20 05:56:00
1 2016-05-30 15:00:00 Ts debe ser mayor o igual a Td Ts=10.7 - Td=10.8 2023-11-20 05:57:00
1 2016-05-31 16:00:00 Ts debe ser mayor o igual a Td Ts=7.8 - Td=7.9 2023-11-20 05:57:00
1 2016-06-02 15:00:00 Ts debe ser mayor o igual a Td Ts=8.1 - Td=8.2 2023-11-20 05:57:00
1 2016-06-06 22:00:00 Ts debe ser mayor o igual a Td Ts=8.3 - Td=8.4 2023-11-20 05:57:00
1 2016-06-08 10:00:00 Ts debe ser mayor o igual a Td Ts=7.0 - Td=7.1 2023-11-20 05:57:00
1 2016-06-08 14:00:00 Ts debe ser mayor o igual a Td Ts=7.1 - Td=7.2 2023-11-20 05:57:00
1 2016-06-09 08:00:00 Ts debe ser mayor o igual a Td Ts=6.9 - Td=7.0 2023-11-20 05:57:00
1 2016-06-14 14:00:00 Ts debe ser mayor o igual a Td Ts=7.3 - Td=7.4 2023-11-20 05:57:00
1 2016-06-15 03:00:00 Ts debe ser mayor o igual a Td Ts=5.6 - Td=5.7 2023-11-20 05:57:00
1 2016-06-16 14:00:00 Ts debe ser mayor o igual a Td Ts=5.6 - Td=5.7 2023-11-20 05:57:00
1 2016-06-23 05:00:00 Ts debe ser mayor o igual a Td Ts=5.6 - Td=5.7 2023-11-20 05:57:00
1 2016-06-23 07:00:00 Ts debe ser mayor o igual a Td Ts=5.7 - Td=5.8 2023-11-20 05:57:00
1 2016-06-23 14:00:00 Ts debe ser mayor o igual a Td Ts=6.9 - Td=7.0 2023-11-20 05:57:00
1 2016-06-28 16:00:00 Ts debe ser mayor o igual a Td Ts=7.0 - Td=7.1 2023-11-20 05:57:00
1 2016-07-07 03:00:00 Ts debe ser mayor o igual a Td Ts=8.7 - Td=8.8 2023-11-20 05:57:00
1 2016-07-07 06:00:00 Ts debe ser mayor o igual a Td Ts=8.5 - Td=8.6 2023-11-20 05:57:00
1 2016-07-08 08:00:00 Ts debe ser mayor o igual a Td Ts=7.0 - Td=7.1 2023-11-20 05:57:00
1 2016-07-08 15:00:00 Ts debe ser mayor o igual a Td Ts=7.8 - Td=7.9 2023-11-20 05:57:00
1 2016-07-08 17:00:00 Ts debe ser mayor o igual a Td Ts=8.9 - Td=9.0 2023-11-20 05:57:00
1 2016-07-11 12:00:00 Ts debe ser mayor o igual a Td Ts=7.3 - Td=7.4 2023-11-20 05:57:00
1 2016-07-13 00:00:00 Ts debe ser mayor o igual a Td Ts=7.8 - Td=7.9 2023-11-20 05:57:00
1 2016-07-13 17:00:00 Ts debe ser mayor o igual a Td Ts=7.1 - Td=7.2 2023-11-20 05:57:00
1 2016-07-13 19:00:00 Ts debe ser mayor o igual a Td Ts=7.7 - Td=7.8 2023-11-20 05:57:00
1 2016-07-17 12:00:00 Ts debe ser mayor o igual a Td Ts=7.0 - Td=7.1 2023-11-20 05:57:00
1 2016-07-17 18:00:00 Ts debe ser mayor o igual a Td Ts=7.6 - Td=7.7 2023-11-20 05:57:00
1 2016-07-21 19:00:00 Ts debe ser mayor o igual a Td Ts=7.5 - Td=7.6 2023-11-20 05:57:00
1 2016-07-21 23:00:00 Ts debe ser mayor o igual a Td Ts=7.5 - Td=7.6 2023-11-20 05:57:00
1 2016-07-22 00:00:00 Ts debe ser mayor o igual a Td Ts=7.3 - Td=7.4 2023-11-20 05:57:00
1 2016-07-22 22:00:00 Ts debe ser mayor o igual a Td Ts=8.4 - Td=8.5 2023-11-20 05:57:00
1 2016-07-22 23:00:00 Ts debe ser mayor o igual a Td Ts=8.3 - Td=8.4 2023-11-20 05:57:00
1 2016-07-23 01:00:00 Ts debe ser mayor o igual a Td Ts=8.3 - Td=8.4 2023-11-20 05:57:00
1 2016-07-23 02:00:00 Ts debe ser mayor o igual a Td Ts=7.5 - Td=7.6 2023-11-20 05:57:00
1 2016-07-23 05:00:00 Ts debe ser mayor o igual a Td Ts=7.2 - Td=7.3 2023-11-20 05:57:00
1 2016-07-23 18:00:00 Ts debe ser mayor o igual a Td Ts=8.8 - Td=8.9 2023-11-20 05:57:00
1 2016-07-23 21:00:00 Ts debe ser mayor o igual a Td Ts=9.4 - Td=9.5 2023-11-20 05:57:00
1 2016-07-24 11:00:00 Ts debe ser mayor o igual a Td Ts=8.9 - Td=9.0 2023-11-20 05:57:00
1 2016-07-24 14:00:00 Ts debe ser mayor o igual a Td Ts=8.3 - Td=8.4 2023-11-20 05:57:00
1 2016-07-25 13:00:00 Ts debe ser mayor o igual a Td Ts=7.2 - Td=7.3 2023-11-20 05:57:00
1 2016-08-04 06:00:00 Ts debe ser mayor o igual a Td Ts=5.6 - Td=5.7 2023-11-20 05:57:00
1 2016-08-04 07:00:00 Ts debe ser mayor o igual a Td Ts=5.7 - Td=5.8 2023-11-20 05:57:00
1 2016-08-11 13:00:00 Ts debe ser mayor o igual a Td Ts=6.9 - Td=7.0 2023-11-20 05:58:00
1 2016-08-13 09:00:00 Ts debe ser mayor o igual a Td Ts=7.4 - Td=7.5 2023-11-20 05:58:00
1 2016-08-16 07:00:00 Ts debe ser mayor o igual a Td Ts=10.7 - Td=10.8 2023-11-20 05:58:00
1 2016-08-23 09:00:00 Ts debe ser mayor o igual a Td Ts=7.0 - Td=7.1 2023-11-20 05:58:00
1 2016-08-23 10:00:00 Ts debe ser mayor o igual a Td Ts=7.5 - Td=7.6 2023-11-20 05:58:00
1 2016-08-23 15:00:00 Ts debe ser mayor o igual a Td Ts=8.7 - Td=8.8 2023-11-20 05:58:00
1 2016-08-23 17:00:00 Ts debe ser mayor o igual a Td Ts=10.4 - Td=10.5 2023-11-20 05:58:00
1 2016-08-27 15:00:00 Ts debe ser mayor o igual a Td Ts=5.7 - Td=5.8 2023-11-20 05:58:00
1 2016-08-29 13:00:00 Ts debe ser mayor o igual a Td Ts=5.6 - Td=5.7 2023-11-20 05:58:00
1 2016-08-29 14:00:00 Ts debe ser mayor o igual a Td Ts=7.0 - Td=7.1 2023-11-20 05:58:00
1 2016-09-10 12:00:00 Ts debe ser mayor o igual a Td Ts=7.0 - Td=7.1 2023-11-20 05:58:00
1 2016-09-18 10:00:00 Ts debe ser mayor o igual a Td Ts=7.6 - Td=7.7 2023-11-20 05:58:00
1 2016-09-18 12:00:00 Ts debe ser mayor o igual a Td Ts=8.1 - Td=8.2 2023-11-20 05:58:00
1 2016-09-28 10:00:00 Ts debe ser mayor o igual a Td Ts=7.4 - Td=7.5 2023-11-20 05:58:00
1 2016-09-28 14:00:00 Ts debe ser mayor o igual a Td Ts=10.5 - Td=10.6 2023-11-20 05:58:00
1 2016-10-17 07:00:00 Ts debe ser mayor o igual a Td Ts=4.8 - Td=4.9 2023-11-20 05:58:00
1 2016-10-26 11:00:00 Ts debe ser mayor o igual a Td Ts=7.0 - Td=7.1 2023-11-20 05:59:00
1 2016-11-15 09:00:00 Ts debe ser mayor o igual a Td Ts=8.1 - Td=8.2 2023-11-20 05:59:00
1 2016-12-10 12:00:00 Ts debe ser mayor o igual a Td Ts=13.0 - Td=13.1 2023-11-20 05:59:00
1 2016-12-11 10:00:00 Ts debe ser mayor o igual a Td Ts=11.6 - Td=11.7 2023-11-20 05:59:00
1 2016-12-21 04:00:00 Ts debe ser mayor o igual a Td Ts=10.3 - Td=10.4 2023-11-20 05:59:00
1 2016-12-21 08:00:00 Ts debe ser mayor o igual a Td Ts=8.1 - Td=8.2 2023-11-20 05:59:00
1 2017-02-04 03:00:00 Ts debe ser mayor o igual a Td Ts=13.6 - Td=13.7 2023-11-20 06:00:00
1 2017-02-04 12:00:00 Ts debe ser mayor o igual a Td Ts=12.9 - Td=13.0 2023-11-20 06:00:00
1 2017-02-21 09:00:00 Ts debe ser mayor o igual a Td Ts=16.1 - Td=16.2 2023-11-20 06:00:00
1 2017-02-21 10:00:00 Ts debe ser mayor o igual a Td Ts=16.0 - Td=16.1 2023-11-20 06:00:00
1 2017-03-01 04:00:00 Ts debe ser mayor o igual a Td Ts=15.1 - Td=15.2 2023-11-20 06:01:00
1 2017-03-01 13:00:00 Ts debe ser mayor o igual a Td Ts=14.7 - Td=14.8 2023-11-20 06:01:00
1 2017-03-09 11:00:00 Ts debe ser mayor o igual a Td Ts=10.4 - Td=10.5 2023-11-20 06:01:00
1 2017-03-31 15:00:00 Ts debe ser mayor o igual a Td Ts=11.5 - Td=11.6 2023-11-20 06:01:00
1 2017-04-06 23:00:00 Ts debe ser mayor o igual a Td Ts=9.3 - Td=9.4 2023-11-20 06:01:00
1 2017-04-07 00:00:00 Ts debe ser mayor o igual a Td Ts=9.1 - Td=9.2 2023-11-20 06:01:00
1 2017-04-07 05:00:00 Ts debe ser mayor o igual a Td Ts=9.3 - Td=9.4 2023-11-20 06:01:00
1 2017-04-07 06:00:00 Ts debe ser mayor o igual a Td Ts=9.3 - Td=9.4 2023-11-20 06:01:00
1 2017-04-07 10:00:00 Ts debe ser mayor o igual a Td Ts=7.6 - Td=7.7 2023-11-20 06:01:00
1 2017-04-08 01:00:00 Ts debe ser mayor o igual a Td Ts=8.5 - Td=8.6 2023-11-20 06:01:00
1 2017-04-08 04:00:00 Ts debe ser mayor o igual a Td Ts=8.3 - Td=8.4 2023-11-20 06:01:00
1 2017-04-08 05:00:00 Ts debe ser mayor o igual a Td Ts=8.1 - Td=8.2 2023-11-20 06:01:00
1 2017-04-08 15:00:00 Ts debe ser mayor o igual a Td Ts=8.7 - Td=8.8 2023-11-20 06:01:00
1 2017-04-10 09:00:00 Ts debe ser mayor o igual a Td Ts=7.0 - Td=7.1 2023-11-20 06:01:00
1 2017-04-10 13:00:00 Ts debe ser mayor o igual a Td Ts=8.8 - Td=8.9 2023-11-20 06:01:00
1 2017-04-15 10:00:00 Ts debe ser mayor o igual a Td Ts=8.8 - Td=8.9 2023-11-20 06:01:00
1 2017-04-15 11:00:00 Ts debe ser mayor o igual a Td Ts=9.4 - Td=9.5 2023-11-20 06:01:00
1 2017-04-15 13:00:00 Ts debe ser mayor o igual a Td Ts=10.5 - Td=10.6 2023-11-20 06:01:00
1 2017-04-22 14:00:00 Ts debe ser mayor o igual a Td Ts=10.6 - Td=10.7 2023-11-20 06:01:00
1 2017-04-25 00:00:00 Ts debe ser mayor o igual a Td Ts=9.1 - Td=9.2 2023-11-20 06:01:00
1 2017-04-25 02:00:00 Ts debe ser mayor o igual a Td Ts=8.3 - Td=8.4 2023-11-20 06:01:00
1 2017-04-25 05:00:00 Ts debe ser mayor o igual a Td Ts=8.2 - Td=8.3 2023-11-20 06:01:00
1 2017-04-30 16:00:00 Ts debe ser mayor o igual a Td Ts=12.9 - Td=13.0 2023-11-20 06:01:00
1 2017-05-01 16:00:00 Ts debe ser mayor o igual a Td Ts=12.3 - Td=12.4 2023-11-20 06:01:00
1 2017-05-01 17:00:00 Ts debe ser mayor o igual a Td Ts=12.4 - Td=12.5 2023-11-20 06:01:00
1 2017-05-06 10:00:00 Ts debe ser mayor o igual a Td Ts=11.7 - Td=11.8 2023-11-20 06:02:00
1 2017-05-06 12:00:00 Ts debe ser mayor o igual a Td Ts=11.7 - Td=11.8 2023-11-20 06:02:00
1 2017-05-06 14:00:00 Ts debe ser mayor o igual a Td Ts=12.2 - Td=12.3 2023-11-20 06:02:00
1 2017-05-07 00:00:00 Ts debe ser mayor o igual a Td Ts=10.7 - Td=10.8 2023-11-20 06:02:00
1 2017-05-07 03:00:00 Ts debe ser mayor o igual a Td Ts=10.7 - Td=10.8 2023-11-20 06:02:00
1 2017-05-07 10:00:00 Ts debe ser mayor o igual a Td Ts=9.4 - Td=9.5 2023-11-20 06:02:00
1 2017-05-09 13:00:00 Ts debe ser mayor o igual a Td Ts=7.0 - Td=7.1 2023-11-20 06:02:00
1 2017-05-09 14:00:00 Ts debe ser mayor o igual a Td Ts=7.5 - Td=7.6 2023-11-20 06:02:00
1 2017-05-09 15:00:00 Ts debe ser mayor o igual a Td Ts=8.9 - Td=9.0 2023-11-20 06:02:00
1 2017-05-09 16:00:00 Ts debe ser mayor o igual a Td Ts=12.2 - Td=12.3 2023-11-20 06:02:00
1 2017-05-25 18:00:00 Ts debe ser mayor o igual a Td Ts=7.8 - Td=7.9 2023-11-20 06:02:00
1 2017-05-30 20:00:00 Ts debe ser mayor o igual a Td Ts=8.1 - Td=8.2 2023-11-20 06:02:00
1 2017-05-31 14:00:00 Ts debe ser mayor o igual a Td Ts=7.7 - Td=7.8 2023-11-20 06:02:00
1 2017-06-01 04:00:00 Ts debe ser mayor o igual a Td Ts=9.2 - Td=9.3 2023-11-20 06:02:00
1 2017-06-01 05:00:00 Ts debe ser mayor o igual a Td Ts=8.6 - Td=8.7 2023-11-20 06:02:00
1 2017-06-01 13:00:00 Ts debe ser mayor o igual a Td Ts=6.9 - Td=7.0 2023-11-20 06:02:00
1 2017-06-01 14:00:00 Ts debe ser mayor o igual a Td Ts=9.2 - Td=9.3 2023-11-20 06:02:00
1 2017-06-02 19:00:00 Ts debe ser mayor o igual a Td Ts=8.5 - Td=8.6 2023-11-20 06:02:00
1 2017-06-04 04:00:00 Ts debe ser mayor o igual a Td Ts=5.6 - Td=5.7 2023-11-20 06:02:00
1 2017-06-07 15:00:00 Ts debe ser mayor o igual a Td Ts=10.8 - Td=10.9 2023-11-20 06:02:00
1 2017-06-10 03:00:00 Ts debe ser mayor o igual a Td Ts=8.6 - Td=8.7 2023-11-20 06:02:00
1 2017-06-16 12:00:00 Ts debe ser mayor o igual a Td Ts=10.4 - Td=10.5 2023-11-20 06:02:00
1 2017-06-23 06:00:00 Ts debe ser mayor o igual a Td Ts=7.1 - Td=7.2 2023-11-20 06:02:00
1 2017-06-23 07:00:00 Ts debe ser mayor o igual a Td Ts=7.1 - Td=7.2 2023-11-20 06:02:00
1 2017-06-23 15:00:00 Ts debe ser mayor o igual a Td Ts=8.7 - Td=8.8 2023-11-20 06:02:00
1 2017-06-27 09:00:00 Ts debe ser mayor o igual a Td Ts=7.2 - Td=7.3 2023-11-20 06:02:00
1 2017-06-27 10:00:00 Ts debe ser mayor o igual a Td Ts=7.8 - Td=7.9 2023-11-20 06:02:00
1 2017-06-28 11:00:00 Ts debe ser mayor o igual a Td Ts=7.0 - Td=7.1 2023-11-20 06:02:00
1 2017-06-28 17:00:00 Ts debe ser mayor o igual a Td Ts=8.9 - Td=9.0 2023-11-20 06:02:00
1 2017-06-28 18:00:00 Ts debe ser mayor o igual a Td Ts=8.9 - Td=9.0 2023-11-20 06:02:00
1 2017-06-30 08:00:00 Ts debe ser mayor o igual a Td Ts=10.4 - Td=10.5 2023-11-20 06:02:00
1 2017-06-30 09:00:00 Ts debe ser mayor o igual a Td Ts=10.4 - Td=10.5 2023-11-20 06:02:00
1 2017-07-01 08:00:00 Ts debe ser mayor o igual a Td Ts=10.3 - Td=10.4 2023-11-20 06:02:00
1 2017-07-01 22:00:00 Ts debe ser mayor o igual a Td Ts=9.1 - Td=9.2 2023-11-20 06:02:00
1 2017-07-02 13:00:00 Ts debe ser mayor o igual a Td Ts=8.1 - Td=8.2 2023-11-20 06:02:00
1 2017-07-03 22:00:00 Ts debe ser mayor o igual a Td Ts=9.1 - Td=9.2 2023-11-20 06:02:00
1 2017-07-04 06:00:00 Ts debe ser mayor o igual a Td Ts=6.9 - Td=7.0 2023-11-20 06:02:00
1 2017-07-04 15:00:00 Ts debe ser mayor o igual a Td Ts=7.7 - Td=7.8 2023-11-20 06:02:00
1 2017-07-07 00:00:00 Ts debe ser mayor o igual a Td Ts=7.6 - Td=7.7 2023-11-20 06:02:00
1 2017-07-07 09:00:00 Ts debe ser mayor o igual a Td Ts=7.3 - Td=7.4 2023-11-20 06:02:00
1 2017-07-07 10:00:00 Ts debe ser mayor o igual a Td Ts=7.3 - Td=7.4 2023-11-20 06:02:00
1 2017-07-07 23:00:00 Ts debe ser mayor o igual a Td Ts=7.7 - Td=7.8 2023-11-20 06:02:00
1 2017-07-08 12:00:00 Ts debe ser mayor o igual a Td Ts=7.0 - Td=7.1 2023-11-20 06:02:00
1 2017-07-13 06:00:00 Ts debe ser mayor o igual a Td Ts=8.3 - Td=8.4 2023-11-20 06:02:00
1 2017-07-13 15:00:00 Ts debe ser mayor o igual a Td Ts=7.8 - Td=7.9 2023-11-20 06:02:00
1 2017-07-21 08:00:00 Ts debe ser mayor o igual a Td Ts=7.0 - Td=7.1 2023-11-20 06:03:00
1 2017-07-21 15:00:00 Ts debe ser mayor o igual a Td Ts=7.4 - Td=7.5 2023-11-20 06:03:00
1 2017-07-22 00:00:00 Ts debe ser mayor o igual a Td Ts=9.3 - Td=9.4 2023-11-20 06:03:00
1 2017-07-22 05:00:00 Ts debe ser mayor o igual a Td Ts=7.8 - Td=7.9 2023-11-20 06:03:00
1 2017-07-22 09:00:00 Ts debe ser mayor o igual a Td Ts=8.2 - Td=8.3 2023-11-20 06:03:00
1 2017-07-22 13:00:00 Ts debe ser mayor o igual a Td Ts=8.6 - Td=8.7 2023-11-20 06:03:00
1 2017-07-25 17:00:00 Ts debe ser mayor o igual a Td Ts=7.3 - Td=7.4 2023-11-20 06:03:00
1 2017-08-09 11:00:00 Ts debe ser mayor o igual a Td Ts=7.4 - Td=7.5 2023-11-20 06:03:00
1 2017-08-09 12:00:00 Ts debe ser mayor o igual a Td Ts=7.8 - Td=7.9 2023-11-20 06:03:00
1 2017-08-16 17:00:00 Ts debe ser mayor o igual a Td Ts=8.6 - Td=8.7 2023-11-20 06:03:00
1 2017-08-18 11:00:00 Ts debe ser mayor o igual a Td Ts=8.6 - Td=8.7 2023-11-20 06:03:00
1 2017-08-22 18:00:00 Ts debe ser mayor o igual a Td Ts=7.2 - Td=7.3 2023-11-20 06:03:00
1 2017-08-24 10:00:00 Ts debe ser mayor o igual a Td Ts=5.6 - Td=5.7 2023-11-20 06:03:00
1 2017-08-24 16:00:00 Ts debe ser mayor o igual a Td Ts=5.6 - Td=5.7 2023-11-20 06:03:00
1 2017-08-27 15:00:00 Ts debe ser mayor o igual a Td Ts=7.3 - Td=7.4 2023-11-20 06:03:00
1 2017-08-27 17:00:00 Ts debe ser mayor o igual a Td Ts=7.4 - Td=7.5 2023-11-20 06:03:00
1 2017-08-27 20:00:00 Ts debe ser mayor o igual a Td Ts=7.5 - Td=7.6 2023-11-20 06:03:00
1 2017-08-28 15:00:00 Ts debe ser mayor o igual a Td Ts=5.6 - Td=5.7 2023-11-20 06:03:00
1 2017-09-02 13:00:00 Ts debe ser mayor o igual a Td Ts=5.6 - Td=5.7 2023-11-20 06:03:00
1 2017-09-19 09:00:00 Ts debe ser mayor o igual a Td Ts=8.1 - Td=8.2 2023-11-20 06:03:00
1 2017-09-30 07:00:00 Ts debe ser mayor o igual a Td Ts=8.1 - Td=8.2 2023-11-20 06:04:00
1 2017-09-30 09:00:00 Ts debe ser mayor o igual a Td Ts=8.1 - Td=8.2 2023-11-20 06:04:00
1 2017-09-30 10:00:00 Ts debe ser mayor o igual a Td Ts=7.8 - Td=7.9 2023-11-20 06:04:00
1 2017-10-18 08:00:00 Ts debe ser mayor o igual a Td Ts=7.6 - Td=7.7 2023-11-20 06:04:00
1 2018-01-04 06:00:00 Ts debe ser mayor o igual a Td Ts=15.0 - Td=15.1 2023-11-20 06:05:00
1 2018-01-04 12:00:00 Ts debe ser mayor o igual a Td Ts=14.5 - Td=14.6 2023-11-20 06:05:00
1 2018-01-04 15:00:00 Ts debe ser mayor o igual a Td Ts=14.7 - Td=14.8 2023-11-20 06:05:00
1 2018-02-18 11:00:00 Ts debe ser mayor o igual a Td Ts=16.2 - Td=16.3 2023-11-20 07:17:00
1 2018-02-20 07:00:00 Ts debe ser mayor o igual a Td Ts=11.4 - Td=11.5 2023-11-20 07:17:00
1 2018-02-20 09:00:00 Ts debe ser mayor o igual a Td Ts=11.4 - Td=11.5 2023-11-20 07:17:00
1 2018-02-20 12:00:00 Ts debe ser mayor o igual a Td Ts=12.6 - Td=12.7 2023-11-20 07:17:00
1 2018-02-23 07:00:00 Ts debe ser mayor o igual a Td Ts=12.4 - Td=12.5 2023-11-20 07:17:00
1 2018-03-10 00:00:00 Ts debe ser mayor o igual a Td Ts=10.3 - Td=10.4 2023-11-20 07:17:00
1 2018-03-10 09:00:00 Ts debe ser mayor o igual a Td Ts=5.7 - Td=5.8 2023-11-20 07:17:00
1 2018-03-17 16:00:00 Ts debe ser mayor o igual a Td Ts=12.3 - Td=12.4 2023-11-20 07:17:00
1 2018-03-18 04:00:00 Ts debe ser mayor o igual a Td Ts=7.4 - Td=7.5 2023-11-20 07:17:00
1 2018-03-18 07:00:00 Ts debe ser mayor o igual a Td Ts=7.1 - Td=7.2 2023-11-20 07:17:00
1 2018-03-18 11:00:00 Ts debe ser mayor o igual a Td Ts=7.2 - Td=7.3 2023-11-20 07:17:00
1 2018-03-21 13:00:00 Ts debe ser mayor o igual a Td Ts=9.3 - Td=9.4 2023-11-20 07:17:00
1 2018-03-23 04:00:00 Ts debe ser mayor o igual a Td Ts=10.7 - Td=10.8 2023-11-20 07:17:00
1 2018-04-09 13:00:00 Ts debe ser mayor o igual a Td Ts=12.4 - Td=12.5 2023-11-20 07:18:00
1 2018-04-09 18:00:00 Ts debe ser mayor o igual a Td Ts=13.1 - Td=13.2 2023-11-20 07:18:00
1 2018-04-10 07:00:00 Ts debe ser mayor o igual a Td Ts=13.0 - Td=13.1 2023-11-20 07:18:00
1 2018-04-10 08:00:00 Ts debe ser mayor o igual a Td Ts=12.9 - Td=13.0 2023-11-20 07:18:00
1 2018-04-10 11:00:00 Ts debe ser mayor o igual a Td Ts=12.6 - Td=12.7 2023-11-20 07:18:00
1 2018-04-11 07:00:00 Ts debe ser mayor o igual a Td Ts=8.1 - Td=8.2 2023-11-20 07:18:00
1 2018-04-11 13:00:00 Ts debe ser mayor o igual a Td Ts=8.5 - Td=8.6 2023-11-20 07:18:00
1 2018-04-17 00:00:00 Ts debe ser mayor o igual a Td Ts=9.2 - Td=9.3 2023-11-20 07:18:00
1 2018-04-19 09:00:00 Ts debe ser mayor o igual a Td Ts=8.1 - Td=8.2 2023-11-20 07:18:00
1 2018-04-19 10:00:00 Ts debe ser mayor o igual a Td Ts=8.7 - Td=8.8 2023-11-20 07:18:00
1 2018-04-19 11:00:00 Ts debe ser mayor o igual a Td Ts=9.0 - Td=9.1 2023-11-20 07:18:00
1 2018-04-25 14:00:00 Ts debe ser mayor o igual a Td Ts=6.9 - Td=7.0 2023-11-20 07:18:00
1 2018-04-27 14:00:00 Ts debe ser mayor o igual a Td Ts=8.6 - Td=8.7 2023-11-20 07:18:00
1 2018-04-30 10:00:00 Ts debe ser mayor o igual a Td Ts=5.6 - Td=5.7 2023-11-20 07:18:00
1 2018-04-30 14:00:00 Ts debe ser mayor o igual a Td Ts=7.3 - Td=7.4 2023-11-20 07:18:00
1 2018-05-03 10:00:00 Ts debe ser mayor o igual a Td Ts=9.2 - Td=9.3 2023-11-20 07:18:00
1 2018-05-03 11:00:00 Ts debe ser mayor o igual a Td Ts=9.1 - Td=9.2 2023-11-20 07:18:00
1 2018-05-03 12:00:00 Ts debe ser mayor o igual a Td Ts=8.3 - Td=8.4 2023-11-20 07:18:00
1 2018-05-07 15:00:00 Ts debe ser mayor o igual a Td Ts=13.6 - Td=13.7 2023-11-20 07:18:00
1 2018-05-08 05:00:00 Ts debe ser mayor o igual a Td Ts=11.8 - Td=11.9 2023-11-20 07:18:00
1 2018-05-09 11:00:00 Ts debe ser mayor o igual a Td Ts=8.2 - Td=8.3 2023-11-20 07:18:00
1 2018-05-14 14:00:00 Ts debe ser mayor o igual a Td Ts=8.5 - Td=8.6 2023-11-20 07:18:00
1 2018-05-16 15:00:00 Ts debe ser mayor o igual a Td Ts=7.6 - Td=7.7 2023-11-20 07:18:00
1 2018-05-18 01:00:00 Ts debe ser mayor o igual a Td Ts=9.4 - Td=9.5 2023-11-20 07:18:00
1 2018-05-18 03:00:00 Ts debe ser mayor o igual a Td Ts=8.7 - Td=8.8 2023-11-20 07:18:00
1 2018-05-18 05:00:00 Ts debe ser mayor o igual a Td Ts=7.6 - Td=7.7 2023-11-20 07:18:00
1 2018-05-18 11:00:00 Ts debe ser mayor o igual a Td Ts=8.2 - Td=8.3 2023-11-20 07:18:00
1 2018-05-19 05:00:00 Ts debe ser mayor o igual a Td Ts=5.6 - Td=5.7 2023-11-20 07:18:00
1 2018-05-20 07:00:00 Ts debe ser mayor o igual a Td Ts=9.3 - Td=9.4 2023-11-20 07:18:00
1 2018-05-20 09:00:00 Ts debe ser mayor o igual a Td Ts=9.4 - Td=9.5 2023-11-20 07:18:00
1 2018-05-25 14:00:00 Ts debe ser mayor o igual a Td Ts=7.1 - Td=7.2 2023-11-20 07:18:00
1 2018-05-28 08:00:00 Ts debe ser mayor o igual a Td Ts=9.0 - Td=9.1 2023-11-20 07:18:00
1 2018-05-28 12:00:00 Ts debe ser mayor o igual a Td Ts=8.6 - Td=8.7 2023-11-20 07:18:00
1 2018-05-28 15:00:00 Ts debe ser mayor o igual a Td Ts=9.3 - Td=9.4 2023-11-20 07:18:00
1 2018-05-29 03:00:00 Ts debe ser mayor o igual a Td Ts=6.9 - Td=7.0 2023-11-20 07:18:00
1 2018-05-30 14:00:00 Ts debe ser mayor o igual a Td Ts=6.9 - Td=7.0 2023-11-20 07:18:00
1 2018-06-06 02:00:00 Ts debe ser mayor o igual a Td Ts=5.6 - Td=5.7 2023-11-20 07:18:00
1 2018-06-08 16:00:00 Ts debe ser mayor o igual a Td Ts=8.5 - Td=8.6 2023-11-20 07:18:00
1 2018-06-17 03:00:00 Ts debe ser mayor o igual a Td Ts=7.0 - Td=7.1 2023-11-20 07:18:00
1 2018-06-17 07:00:00 Ts debe ser mayor o igual a Td Ts=7.7 - Td=7.8 2023-11-20 07:18:00
1 2018-06-17 16:00:00 Ts debe ser mayor o igual a Td Ts=10.5 - Td=10.6 2023-11-20 07:18:00
1 2018-06-18 02:00:00 Ts debe ser mayor o igual a Td Ts=10.3 - Td=10.4 2023-11-20 07:18:00
1 2018-06-18 08:00:00 Ts debe ser mayor o igual a Td Ts=9.4 - Td=9.5 2023-11-20 07:18:00
1 2018-06-18 13:00:00 Ts debe ser mayor o igual a Td Ts=8.9 - Td=9.0 2023-11-20 07:18:00
1 2018-06-18 14:00:00 Ts debe ser mayor o igual a Td Ts=9.0 - Td=9.1 2023-11-20 07:18:00
1 2018-06-18 17:00:00 Ts debe ser mayor o igual a Td Ts=11.7 - Td=11.8 2023-11-20 07:18:00
1 2018-06-19 08:00:00 Ts debe ser mayor o igual a Td Ts=9.0 - Td=9.1 2023-11-20 07:18:00
1 2018-06-19 20:00:00 Ts debe ser mayor o igual a Td Ts=8.8 - Td=8.9 2023-11-20 07:18:00
1 2018-06-20 11:00:00 Ts debe ser mayor o igual a Td Ts=5.7 - Td=5.8 2023-11-20 07:18:00
1 2018-06-20 12:00:00 Ts debe ser mayor o igual a Td Ts=5.7 - Td=5.8 2023-11-20 07:18:00
1 2018-06-22 15:00:00 Ts debe ser mayor o igual a Td Ts=6.9 - Td=7.0 2023-11-20 07:19:00
1 2018-06-22 16:00:00 Ts debe ser mayor o igual a Td Ts=7.7 - Td=7.8 2023-11-20 07:19:00
1 2018-06-23 05:00:00 Ts debe ser mayor o igual a Td Ts=7.6 - Td=7.7 2023-11-20 07:19:00
1 2018-06-23 07:00:00 Ts debe ser mayor o igual a Td Ts=7.5 - Td=7.6 2023-11-20 07:19:00
1 2018-06-25 17:00:00 Ts debe ser mayor o igual a Td Ts=7.3 - Td=7.4 2023-11-20 07:19:00
1 2018-06-26 09:00:00 Ts debe ser mayor o igual a Td Ts=9.4 - Td=9.5 2023-11-20 07:19:00
1 2018-06-26 22:00:00 Ts debe ser mayor o igual a Td Ts=11.5 - Td=11.6 2023-11-20 07:19:00
1 2018-07-01 12:00:00 Ts debe ser mayor o igual a Td Ts=8.1 - Td=8.2 2023-11-20 07:19:00
1 2018-07-08 15:00:00 Ts debe ser mayor o igual a Td Ts=5.6 - Td=5.7 2023-11-20 07:19:00
1 2018-08-03 15:00:00 Ts debe ser mayor o igual a Td Ts=8.7 - Td=8.8 2023-11-20 07:19:00
1 2018-08-17 14:00:00 Ts debe ser mayor o igual a Td Ts=9.2 - Td=9.3 2023-11-20 07:19:00
1 2018-08-26 12:00:00 Ts debe ser mayor o igual a Td Ts=7.5 - Td=7.6 2023-11-20 07:19:00
1 2018-08-26 15:00:00 Ts debe ser mayor o igual a Td Ts=8.3 - Td=8.4 2023-11-20 07:19:00
1 2018-09-03 14:00:00 Ts debe ser mayor o igual a Td Ts=8.8 - Td=8.9 2023-11-20 07:20:00
1 2018-09-18 14:00:00 Ts debe ser mayor o igual a Td Ts=8.9 - Td=9.0 2023-11-20 07:20:00
1 2018-09-29 00:00:00 Ts debe ser mayor o igual a Td Ts=9.2 - Td=9.3 2023-11-20 07:20:00
1 2018-09-29 13:00:00 Ts debe ser mayor o igual a Td Ts=8.5 - Td=8.6 2023-11-20 07:20:00
1 2018-10-17 09:00:00 Ts debe ser mayor o igual a Td Ts=8.2 - Td=8.3 2023-11-20 07:20:00
1 2018-10-17 10:00:00 Ts debe ser mayor o igual a Td Ts=8.1 - Td=8.2 2023-11-20 07:20:00
1 2018-10-17 11:00:00 Ts debe ser mayor o igual a Td Ts=7.5 - Td=7.6 2023-11-20 07:20:00
1 2018-10-17 12:00:00 Ts debe ser mayor o igual a Td Ts=7.5 - Td=7.6 2023-11-20 07:20:00
1 2018-10-18 07:00:00 Ts debe ser mayor o igual a Td Ts=7.3 - Td=7.4 2023-11-20 07:20:00
1 2018-10-18 09:00:00 Ts debe ser mayor o igual a Td Ts=6.9 - Td=7.0 2023-11-20 07:20:00
1 2018-10-24 05:00:00 Ts debe ser mayor o igual a Td Ts=7.7 - Td=7.8 2023-11-20 07:20:00
1 2018-10-24 07:00:00 Ts debe ser mayor o igual a Td Ts=7.3 - Td=7.4 2023-11-20 07:20:00
1 2018-10-24 11:00:00 Ts debe ser mayor o igual a Td Ts=7.6 - Td=7.7 2023-11-20 07:20:00
1 2018-10-24 14:00:00 Ts debe ser mayor o igual a Td Ts=10.4 - Td=10.5 2023-11-20 07:20:00
1 2018-10-25 12:00:00 Ts debe ser mayor o igual a Td Ts=7.6 - Td=7.7 2023-11-20 07:20:00
1 2018-11-10 10:00:00 Ts debe ser mayor o igual a Td Ts=11.6 - Td=11.7 2023-11-20 07:20:00
1 2018-11-10 20:00:00 Ts debe ser mayor o igual a Td Ts=15.4 - Td=15.5 2023-11-20 07:20:00
1 2018-11-12 07:00:00 Ts debe ser mayor o igual a Td Ts=7.4 - Td=7.5 2023-11-20 07:20:00
1 2018-11-17 10:00:00 Ts debe ser mayor o igual a Td Ts=7.4 - Td=7.5 2023-11-20 07:21:00
1 2018-12-14 07:00:00 Ts debe ser mayor o igual a Td Ts=7.5 - Td=7.6 2023-11-20 07:21:00
1 2019-01-08 23:00:00 Ts debe ser mayor o igual a Td Ts=10.4 - Td=10.5 2023-11-20 07:21:00
1 2019-01-09 04:00:00 Ts debe ser mayor o igual a Td Ts=10.5 - Td=10.6 2023-11-20 07:21:00
1 2019-01-09 12:00:00 Ts debe ser mayor o igual a Td Ts=10.4 - Td=10.5 2023-11-20 07:21:00
1 2019-03-07 02:00:00 Ts debe ser mayor o igual a Td Ts=14.2 - Td=14.3 2023-11-20 07:22:00
1 2019-03-07 03:00:00 Ts debe ser mayor o igual a Td Ts=14.3 - Td=14.4 2023-11-20 07:22:00
1 2019-04-06 13:00:00 Ts debe ser mayor o igual a Td Ts=8.4 - Td=8.5 2023-11-20 07:22:00
1 2019-04-18 13:00:00 Ts debe ser mayor o igual a Td Ts=12.4 - Td=12.5 2023-11-20 07:23:00
1 2019-04-21 14:00:00 Ts debe ser mayor o igual a Td Ts=7.6 - Td=7.7 2023-11-20 07:23:00
1 2019-04-26 12:00:00 Ts debe ser mayor o igual a Td Ts=8.2 - Td=8.3 2023-11-20 07:23:00
1 2019-04-28 12:00:00 Ts debe ser mayor o igual a Td Ts=13.0 - Td=13.1 2023-11-20 07:23:00
1 2019-04-29 13:00:00 Ts debe ser mayor o igual a Td Ts=8.7 - Td=8.8 2023-11-20 07:23:00
1 2019-05-02 11:00:00 Ts debe ser mayor o igual a Td Ts=13.1 - Td=13.2 2023-11-20 07:23:00
1 2019-05-02 14:00:00 Ts debe ser mayor o igual a Td Ts=14.3 - Td=14.4 2023-11-20 07:23:00
1 2019-05-02 18:00:00 Ts debe ser mayor o igual a Td Ts=14.8 - Td=14.9 2023-11-20 07:23:00
1 2019-05-03 04:00:00 Ts debe ser mayor o igual a Td Ts=13.8 - Td=13.9 2023-11-20 07:23:00
1 2019-05-03 05:00:00 Ts debe ser mayor o igual a Td Ts=13.6 - Td=13.7 2023-11-20 07:23:00
1 2019-05-04 01:00:00 Ts debe ser mayor o igual a Td Ts=12.4 - Td=12.5 2023-11-20 07:23:00
1 2019-05-07 08:00:00 Ts debe ser mayor o igual a Td Ts=9.3 - Td=9.4 2023-11-20 07:23:00
1 2019-05-07 09:00:00 Ts debe ser mayor o igual a Td Ts=9.2 - Td=9.3 2023-11-20 07:23:00
1 2019-05-10 14:00:00 Ts debe ser mayor o igual a Td Ts=7.2 - Td=7.3 2023-11-20 07:23:00
1 2019-05-13 05:00:00 Ts debe ser mayor o igual a Td Ts=9.2 - Td=9.3 2023-11-20 07:23:00
1 2019-05-13 10:00:00 Ts debe ser mayor o igual a Td Ts=8.3 - Td=8.4 2023-11-20 07:23:00
1 2019-05-13 11:00:00 Ts debe ser mayor o igual a Td Ts=7.7 - Td=7.8 2023-11-20 07:23:00
1 2019-05-13 13:00:00 Ts debe ser mayor o igual a Td Ts=7.2 - Td=7.3 2023-11-20 07:23:00
1 2019-05-25 16:00:00 Ts debe ser mayor o igual a Td Ts=7.6 - Td=7.7 2023-11-20 07:23:00
1 2019-06-24 19:00:00 Ts debe ser mayor o igual a Td Ts=5.7 - Td=5.8 2023-11-20 07:23:00
1 2019-06-26 20:00:00 Ts debe ser mayor o igual a Td Ts=8.6 - Td=8.7 2023-11-20 07:23:00
1 2019-06-26 22:00:00 Ts debe ser mayor o igual a Td Ts=8.5 - Td=8.6 2023-11-20 07:23:00
1 2019-06-26 23:00:00 Ts debe ser mayor o igual a Td Ts=8.6 - Td=8.7 2023-11-20 07:23:00
1 2019-06-27 01:00:00 Ts debe ser mayor o igual a Td Ts=8.7 - Td=8.8 2023-11-20 07:23:00
1 2019-06-27 04:00:00 Ts debe ser mayor o igual a Td Ts=9.0 - Td=9.1 2023-11-20 07:23:00
1 2019-06-27 05:00:00 Ts debe ser mayor o igual a Td Ts=8.7 - Td=8.8 2023-11-20 07:23:00
1 2019-06-27 11:00:00 Ts debe ser mayor o igual a Td Ts=7.7 - Td=7.8 2023-11-20 07:23:00
1 2019-06-27 12:00:00 Ts debe ser mayor o igual a Td Ts=7.6 - Td=7.7 2023-11-20 07:23:00
1 2019-06-27 15:00:00 Ts debe ser mayor o igual a Td Ts=8.3 - Td=8.4 2023-11-20 07:23:00
1 2019-07-02 13:00:00 Ts debe ser mayor o igual a Td Ts=5.7 - Td=5.8 2023-11-20 07:23:00
1 2019-07-03 14:00:00 Ts debe ser mayor o igual a Td Ts=7.2 - Td=7.3 2023-11-20 07:23:00
1 2019-07-03 15:00:00 Ts debe ser mayor o igual a Td Ts=7.6 - Td=7.7 2023-11-20 07:23:00
1 2019-07-17 20:00:00 Ts debe ser mayor o igual a Td Ts=8.6 - Td=8.7 2023-11-20 07:24:00
1 2019-07-20 17:00:00 Ts debe ser mayor o igual a Td Ts=8.6 - Td=8.7 2023-11-20 07:24:00
1 2019-07-22 04:00:00 Ts debe ser mayor o igual a Td Ts=4.8 - Td=4.9 2023-11-20 07:24:00
1 2019-07-27 15:00:00 Ts debe ser mayor o igual a Td Ts=7.2 - Td=7.3 2023-11-20 07:24:00
1 2019-07-31 09:00:00 Ts debe ser mayor o igual a Td Ts=5.7 - Td=5.8 2023-11-20 07:24:00
1 2019-10-01 09:00:00 Ts debe ser mayor o igual a Td Ts=3.3 - Td=3.5 2023-11-08 10:08:00
1 2019-10-03 11:00:00 Ts debe ser mayor o igual a Td Ts=1.8 - Td=3.0 2023-11-08 10:08:00
1 2019-10-03 12:00:00 Ts debe ser mayor o igual a Td Ts=3.3 - Td=4.7 2023-11-08 10:08:00
1 2019-10-03 13:00:00 Ts debe ser mayor o igual a Td Ts=4.9 - Td=7.1 2023-11-08 10:08:00
1 2019-10-04 08:00:00 Ts debe ser mayor o igual a Td Ts=5.0 - Td=5.1 2023-11-08 10:08:00
1 2019-10-04 12:00:00 Ts debe ser mayor o igual a Td Ts=5.7 - Td=6.6 2023-11-08 10:08:00
1 2019-10-05 14:00:00 Ts debe ser mayor o igual a Td Ts=6.9 - Td=8.2 2023-11-08 10:08:00
1 2019-10-07 11:00:00 Ts debe ser mayor o igual a Td Ts=7.5 - Td=7.8 2023-11-08 10:08:00
1 2019-10-07 12:00:00 Ts debe ser mayor o igual a Td Ts=7.9 - Td=9.1 2023-11-08 10:08:00
1 2019-10-08 13:00:00 Ts debe ser mayor o igual a Td Ts=6.8 - Td=9.1 2023-11-08 10:08:00
1 2019-10-09 11:00:00 Ts debe ser mayor o igual a Td Ts=3.9 - Td=4.1 2023-11-08 10:08:00
1 2019-10-09 12:00:00 Ts debe ser mayor o igual a Td Ts=4.6 - Td=7.4 2023-11-08 10:08:00
1 2019-10-09 13:00:00 Ts debe ser mayor o igual a Td Ts=7.9 - Td=10.4 2023-11-08 10:08:00
1 2019-10-10 12:00:00 Ts debe ser mayor o igual a Td Ts=8.6 - Td=10.5 2023-11-08 10:08:00
1 2019-10-10 13:00:00 Ts debe ser mayor o igual a Td Ts=11.0 - Td=12.1 2023-11-08 10:08:00
1 2019-10-18 10:00:00 Ts debe ser mayor o igual a Td Ts=1.5 - Td=1.9 2023-11-08 10:08:00
1 2019-10-18 11:00:00 Ts debe ser mayor o igual a Td Ts=2.3 - Td=2.9 2023-11-08 10:08:00
1 2019-10-18 12:00:00 Ts debe ser mayor o igual a Td Ts=3.2 - Td=5.2 2023-11-08 10:08:00
1 2019-10-18 13:00:00 Ts debe ser mayor o igual a Td Ts=5.5 - Td=10.1 2023-11-08 10:08:00
1 2019-10-18 14:00:00 Ts debe ser mayor o igual a Td Ts=10.7 - Td=11.4 2023-11-08 10:08:00
1 2019-10-28 21:00:00 Ts debe ser mayor o igual a Td Ts=7.6 - Td=8.8 2023-11-08 10:09:00
1 2019-10-30 10:00:00 Ts debe ser mayor o igual a Td Ts=1.5 - Td=1.6 2023-11-08 10:09:00
1 2019-10-30 11:00:00 Ts debe ser mayor o igual a Td Ts=1.9 - Td=4.5 2023-11-08 10:09:00
1 2019-10-30 12:00:00 Ts debe ser mayor o igual a Td Ts=4.6 - Td=6.8 2023-11-08 10:09:00
1 2019-10-30 13:00:00 Ts debe ser mayor o igual a Td Ts=7.0 - Td=10.5 2023-11-08 10:09:00
1 2019-10-30 14:00:00 Ts debe ser mayor o igual a Td Ts=11.0 - Td=13.0 2023-11-08 10:09:00
1 2019-10-31 11:00:00 Ts debe ser mayor o igual a Td Ts=4.6 - Td=5.9 2023-11-08 10:09:00
1 2019-11-01 15:00:00 Ts debe ser mayor o igual a Td Ts=10.0 - Td=11.6 2023-11-08 10:09:00
1 2019-11-04 10:00:00 Ts debe ser mayor o igual a Td Ts=8.0 - Td=8.2 2023-11-08 10:09:00
1 2019-11-04 11:00:00 Ts debe ser mayor o igual a Td Ts=8.3 - Td=8.8 2023-11-08 10:09:00
1 2019-11-04 12:00:00 Ts debe ser mayor o igual a Td Ts=8.8 - Td=10.4 2023-11-08 10:09:00
1 2019-11-04 12:00:00 HR (Humedad Relativa) es igual a 100% y Ts <> Td 8.8 - 10.4 2023-11-08 10:09:00
1 2019-11-04 13:00:00 Ts debe ser mayor o igual a Td Ts=10.4 - Td=11.1 2023-11-08 10:09:00
1 2019-11-04 13:00:00 HR (Humedad Relativa) es igual a 100% y Ts <> Td 10.4 - 11.1 2023-11-08 10:09:00
1 2019-11-05 11:00:00 Ts debe ser mayor o igual a Td Ts=2.9 - Td=6.2 2023-11-08 10:09:00
1 2019-11-05 12:00:00 Ts debe ser mayor o igual a Td Ts=6.8 - Td=8.5 2023-11-08 10:09:00
1 2019-11-06 09:00:00 Ts debe ser mayor o igual a Td Ts=4.7 - Td=5.6 2023-11-08 10:09:00
1 2019-11-06 10:00:00 Ts debe ser mayor o igual a Td Ts=6.0 - Td=6.6 2023-11-08 10:09:00
1 2019-11-06 11:00:00 Ts debe ser mayor o igual a Td Ts=6.8 - Td=8.6 2023-11-08 10:09:00
1 2019-11-06 12:00:00 Ts debe ser mayor o igual a Td Ts=8.9 - Td=9.8 2023-11-08 10:09:00
1 2019-11-10 10:00:00 Ts debe ser mayor o igual a Td Ts=7.6 - Td=8.2 2023-11-08 10:09:00
1 2019-11-11 10:00:00 Ts debe ser mayor o igual a Td Ts=7.6 - Td=8.3 2023-11-08 10:09:00
1 2019-11-11 11:00:00 Ts debe ser mayor o igual a Td Ts=8.8 - Td=11.3 2023-11-08 10:09:00
1 2019-11-12 10:00:00 Ts debe ser mayor o igual a Td Ts=9.8 - Td=9.9 2023-11-08 10:09:00
1 2019-11-12 12:00:00 Ts debe ser mayor o igual a Td Ts=10.5 - Td=10.9 2023-11-08 10:09:00
1 2019-11-12 13:00:00 Ts debe ser mayor o igual a Td Ts=11.4 - Td=11.6 2023-11-08 10:09:00
1 2019-11-12 14:00:00 Ts debe ser mayor o igual a Td Ts=12.4 - Td=14.0 2023-11-08 10:09:00
1 2019-11-14 10:00:00 Ts debe ser mayor o igual a Td Ts=6.8 - Td=7.4 2023-11-08 10:09:00
1 2019-11-14 11:00:00 Ts debe ser mayor o igual a Td Ts=7.8 - Td=9.2 2023-11-08 10:09:00
1 2019-11-14 12:00:00 Ts debe ser mayor o igual a Td Ts=9.7 - Td=10.8 2023-11-08 10:09:00
1 2019-11-18 11:00:00 Ts debe ser mayor o igual a Td Ts=9.6 - Td=12.4 2023-11-08 10:09:00
1 2019-11-21 10:00:00 Ts debe ser mayor o igual a Td Ts=6.2 - Td=6.6 2023-11-08 10:09:00
1 2019-11-21 11:00:00 Ts debe ser mayor o igual a Td Ts=7.6 - Td=9.0 2023-11-08 10:09:00
1 2019-11-22 10:00:00 Ts debe ser mayor o igual a Td Ts=5.5 - Td=6.3 2023-11-08 10:09:00
1 2019-11-24 16:00:00 Ts debe ser mayor o igual a Td Ts=13.0 - Td=13.1 2023-11-08 10:09:00
1 2019-11-24 17:00:00 Ts debe ser mayor o igual a Td Ts=13.6 - Td=14.3 2023-11-08 10:09:00
1 2019-11-25 08:00:00 Ts debe ser mayor o igual a Td Ts=6.5 - Td=6.7 2023-11-08 10:09:00
1 2019-11-27 11:00:00 Ts debe ser mayor o igual a Td Ts=7.7 - Td=9.9 2023-11-08 10:09:00
1 2019-11-28 10:00:00 Ts debe ser mayor o igual a Td Ts=5.1 - Td=6.6 2023-11-08 10:09:00
1 2019-11-28 11:00:00 Ts debe ser mayor o igual a Td Ts=7.2 - Td=9.3 2023-11-08 10:09:00
1 2019-11-29 11:00:00 Ts debe ser mayor o igual a Td Ts=9.3 - Td=9.9 2023-11-08 10:09:00
1 2019-11-29 12:00:00 Ts debe ser mayor o igual a Td Ts=10.0 - Td=11.3 2023-11-08 10:09:00
1 2019-12-02 08:00:00 Ts debe ser mayor o igual a Td Ts=10.0 - Td=10.4 2023-11-08 10:09:00
1 2019-12-03 10:00:00 Ts debe ser mayor o igual a Td Ts=7.4 - Td=8.2 2023-11-08 10:09:00
1 2019-12-04 10:00:00 Ts debe ser mayor o igual a Td Ts=5.1 - Td=6.4 2023-11-08 10:09:00
1 2019-12-04 11:00:00 Ts debe ser mayor o igual a Td Ts=7.6 - Td=8.1 2023-11-08 10:09:00
1 2019-12-05 10:00:00 Ts debe ser mayor o igual a Td Ts=6.6 - Td=7.9 2023-11-08 10:09:00
1 2019-12-05 11:00:00 Ts debe ser mayor o igual a Td Ts=8.3 - Td=9.6 2023-11-08 10:09:00
1 2019-12-06 12:00:00 Ts debe ser mayor o igual a Td Ts=10.2 - Td=10.7 2023-11-08 10:09:00
1 2019-12-08 11:00:00 Ts debe ser mayor o igual a Td Ts=6.9 - Td=10.6 2023-11-08 10:09:00
1 2019-12-08 12:00:00 Ts debe ser mayor o igual a Td Ts=11.8 - Td=13.1 2023-11-08 10:09:00
1 2019-12-09 08:00:00 Ts debe ser mayor o igual a Td Ts=8.4 - Td=8.5 2023-11-08 10:09:00
1 2019-12-09 12:00:00 Ts debe ser mayor o igual a Td Ts=10.2 - Td=11.0 2023-11-08 10:09:00
1 2019-12-09 13:00:00 Ts debe ser mayor o igual a Td Ts=11.5 - Td=12.2 2023-11-08 10:09:00
1 2019-12-09 14:00:00 Ts debe ser mayor o igual a Td Ts=12.9 - Td=14.3 2023-11-08 10:09:00
1 2019-12-10 14:00:00 Ts debe ser mayor o igual a Td Ts=14.1 - Td=14.9 2023-11-08 10:09:00
1 2019-12-11 10:00:00 Ts debe ser mayor o igual a Td Ts=6.8 - Td=7.4 2023-11-08 10:09:00
1 2019-12-11 11:00:00 Ts debe ser mayor o igual a Td Ts=7.9 - Td=9.9 2023-11-08 10:09:00
1 2019-12-11 12:00:00 Ts debe ser mayor o igual a Td Ts=10.3 - Td=12.6 2023-11-08 10:09:00
1 2019-12-12 10:00:00 Ts debe ser mayor o igual a Td Ts=2.8 - Td=4.2 2023-11-08 10:09:00
1 2019-12-12 11:00:00 Ts debe ser mayor o igual a Td Ts=5.0 - Td=9.1 2023-11-08 10:09:00
1 2019-12-17 08:00:00 Ts debe ser mayor o igual a Td Ts=7.1 - Td=7.4 2023-11-08 10:09:00
1 2019-12-18 08:00:00 Ts debe ser mayor o igual a Td Ts=11.2 - Td=11.4 2023-11-08 10:09:00
1 2019-12-19 07:00:00 HR (Humedad Relativa) es igual a 100% y Ts <> Td 12.8 - 12.1 2023-11-08 10:09:00
1 2020-01-03 08:00:00 Ts debe ser mayor o igual a Td Ts=10.7 - Td=11.1 2023-11-13 16:23:00
1 2020-01-03 10:00:00 Ts debe ser mayor o igual a Td Ts=12.0 - Td=13.2 2023-11-13 16:23:00
1 2020-01-03 11:00:00 Ts debe ser mayor o igual a Td Ts=13.5 - Td=14.1 2023-11-13 16:23:00
1 2020-01-03 12:00:00 Ts debe ser mayor o igual a Td Ts=14.6 - Td=15.3 2023-11-13 16:23:00
1 2020-01-03 13:00:00 Ts debe ser mayor o igual a Td Ts=16.3 - Td=17.5 2023-11-13 16:23:00
1 2020-01-06 08:00:00 Ts debe ser mayor o igual a Td Ts=8.7 - Td=9.0 2023-11-13 16:23:00
1 2020-01-08 16:00:00 Ts debe ser mayor o igual a Td Ts=12.1 - Td=14.0 2023-11-13 16:23:00
1 2020-01-08 16:00:00 HR (Humedad Relativa) es igual a 100% y Ts <> Td 12.1 - 14.0 2023-11-13 16:23:00
1 2020-01-08 17:00:00 HR (Humedad Relativa) es igual a 100% y Ts <> Td 14.0 - 13.3 2023-11-13 16:23:00
1 2020-01-08 18:00:00 Ts debe ser mayor o igual a Td Ts=13.3 - Td=13.4 2023-11-13 16:23:00
1 2020-01-11 11:00:00 Ts debe ser mayor o igual a Td Ts=8.3 - Td=9.7 2023-11-13 16:23:00
1 2020-01-11 12:00:00 Ts debe ser mayor o igual a Td Ts=10.0 - Td=11.0 2023-11-13 16:23:00
1 2020-01-11 13:00:00 Ts debe ser mayor o igual a Td Ts=11.5 - Td=14.9 2023-11-13 16:23:00
1 2020-01-13 12:00:00 Ts debe ser mayor o igual a Td Ts=13.7 - Td=13.8 2023-11-13 16:23:00
1 2020-01-13 13:00:00 Ts debe ser mayor o igual a Td Ts=14.3 - Td=14.6 2023-11-13 16:23:00
1 2020-01-20 11:00:00 Ts debe ser mayor o igual a Td Ts=6.3 - Td=9.3 2023-11-13 16:23:00
1 2020-01-23 11:00:00 Ts debe ser mayor o igual a Td Ts=9.2 - Td=11.7 2023-11-13 16:23:00
1 2020-01-24 10:00:00 Ts debe ser mayor o igual a Td Ts=8.4 - Td=9.7 2023-11-13 16:23:00
1 2020-01-24 11:00:00 Ts debe ser mayor o igual a Td Ts=10.3 - Td=11.2 2023-11-13 16:23:00
1 2020-01-24 12:00:00 Ts debe ser mayor o igual a Td Ts=11.7 - Td=12.6 2023-11-13 16:23:00
1 2020-01-24 13:00:00 Ts debe ser mayor o igual a Td Ts=13.1 - Td=14.9 2023-11-13 16:23:00
1 2020-01-25 10:00:00 Ts debe ser mayor o igual a Td Ts=9.0 - Td=9.6 2023-11-13 16:23:00
1 2020-01-25 11:00:00 Ts debe ser mayor o igual a Td Ts=10.5 - Td=12.4 2023-11-13 16:23:00
1 2020-01-25 12:00:00 Ts debe ser mayor o igual a Td Ts=13.3 - Td=15.3 2023-11-13 16:23:00
Errores del Nivel 519
Informe generado el 05-03-2024 10:06
Requerimiento: RE6001